createdAt,value
2018-11-01T00:01:47.382Z,18.40
2018-11-01T00:04:15.865Z,16.77
2018-11-01T00:06:44.330Z,18.47
2018-11-01T00:09:12.916Z,27.50
2018-11-01T00:11:41.438Z,28.00
2018-11-01T00:14:09.968Z,29.07
2018-11-01T00:16:38.486Z,28.07
2018-11-01T00:19:07.029Z,27.20
2018-11-01T00:21:35.611Z,28.50
2018-11-01T00:24:04.328Z,28.43
2018-11-01T00:26:32.926Z,27.33
2018-11-01T00:29:01.506Z,26.57
2018-11-01T00:31:30.120Z,30.37
2018-11-01T00:33:58.770Z,35.50
2018-11-01T00:36:27.323Z,39.00
2018-11-01T00:38:55.955Z,39.60
2018-11-01T00:41:24.447Z,42.10
2018-11-01T00:43:52.998Z,42.53
2018-11-01T00:46:21.657Z,41.90
2018-11-01T00:48:50.239Z,41.27
2018-11-01T00:51:18.752Z,36.83
2018-11-01T00:53:47.281Z,36.53
2018-11-01T00:56:15.869Z,36.47
2018-11-01T00:58:44.386Z,35.50
2018-11-01T01:01:12.955Z,37.60
2018-11-01T01:03:41.553Z,33.33
2018-11-01T01:06:10.070Z,35.63
2018-11-01T01:08:38.599Z,31.97
2018-11-01T01:11:07.184Z,32.93
2018-11-01T01:13:35.814Z,31.93
2018-11-01T01:16:04.434Z,31.20
2018-11-01T01:18:32.952Z,28.43
2018-11-01T01:21:02.298Z,26.70
2018-11-01T01:23:30.806Z,24.93
2018-11-01T01:25:59.323Z,20.83
2018-11-01T01:28:27.824Z,20.37
2018-11-01T01:30:56.354Z,21.40
2018-11-01T01:33:24.875Z,23.47
2018-11-01T01:35:53.443Z,23.40
2018-11-01T01:38:22.244Z,23.33
2018-11-01T01:40:50.742Z,24.50
2018-11-01T01:43:21.705Z,24.90
2018-11-01T01:46:03.679Z,25.50
2018-11-01T01:48:33.251Z,26.07
2018-11-01T01:51:12.526Z,25.90
2018-11-01T01:53:41.167Z,24.27
2018-11-01T01:56:09.663Z,25.53
2018-11-01T01:58:38.195Z,25.40
2018-11-01T02:01:06.979Z,25.80
2018-11-01T02:03:35.655Z,28.70
2018-11-01T02:06:04.237Z,31.50
2018-11-01T02:08:32.734Z,35.27
2018-11-01T02:11:01.413Z,34.43
2018-11-01T02:13:29.906Z,32.23
2018-11-01T02:15:58.446Z,30.47
2018-11-01T02:18:26.998Z,29.57
2018-11-01T02:20:55.531Z,29.57
2018-11-01T02:23:24.067Z,31.23
2018-11-01T02:25:52.599Z,31.23
2018-11-01T02:28:21.091Z,29.77
2018-11-01T02:30:49.580Z,30.53
2018-11-01T02:33:18.103Z,30.30
2018-11-01T02:35:46.627Z,29.87
2018-11-01T02:38:15.348Z,31.03
2018-11-01T02:40:43.763Z,28.53
2018-11-01T02:43:12.280Z,29.07
2018-11-01T02:45:41.582Z,26.63
2018-11-01T02:48:10.064Z,27.77
2018-11-01T02:50:38.586Z,27.37
2018-11-01T02:53:07.091Z,26.27
2018-11-01T02:55:35.612Z,26.77
2018-11-01T02:58:04.150Z,26.10
2018-11-01T03:00:32.657Z,25.20
2018-11-01T03:03:01.134Z,24.47
2018-11-01T03:05:29.673Z,24.30
2018-11-01T03:07:58.502Z,24.60
2018-11-01T03:10:27.016Z,27.00
2018-11-01T03:12:55.550Z,27.63
2018-11-01T03:15:24.066Z,30.40
2018-11-01T03:17:52.614Z,30.83
2018-11-01T03:20:21.189Z,31.37
2018-11-01T03:22:49.735Z,30.30
2018-11-01T03:25:18.269Z,29.83
2018-11-01T03:27:46.783Z,30.33
2018-11-01T03:30:15.327Z,27.63
2018-11-01T03:32:43.855Z,29.17
2018-11-01T03:35:12.691Z,36.77
2018-11-01T03:37:42.084Z,34.17
2018-11-01T03:40:11.399Z,32.73
2018-11-01T03:42:40.894Z,31.37
2018-11-01T03:45:11.012Z,30.60
2018-11-01T03:47:39.734Z,34.03
2018-11-01T03:50:08.438Z,34.47
2018-11-01T03:52:37.186Z,33.90
2018-11-01T03:55:06.834Z,31.27
2018-11-01T03:57:35.650Z,33.03
2018-11-01T04:00:04.754Z,32.90
2018-11-01T04:02:33.252Z,31.87
2018-11-01T04:05:01.844Z,32.57
2018-11-01T04:07:30.359Z,30.80
2018-11-01T04:09:58.947Z,27.90
2018-11-01T04:12:27.505Z,25.87
2018-11-01T04:14:56.097Z,24.90
2018-11-01T04:17:24.622Z,23.97
2018-11-01T04:19:53.106Z,24.63
2018-11-01T04:22:21.617Z,23.03
2018-11-01T04:24:50.097Z,23.50
2018-11-01T04:27:18.620Z,26.13
2018-11-01T04:29:47.115Z,27.57
2018-11-01T04:32:15.607Z,27.87
2018-11-01T04:34:44.109Z,26.57
2018-11-01T04:37:12.580Z,22.23
2018-11-01T04:39:41.055Z,21.23
2018-11-01T04:42:09.532Z,23.53
2018-11-01T04:44:38.066Z,25.13
2018-11-01T04:47:06.558Z,25.37
2018-11-01T04:49:35.089Z,23.27
2018-11-01T04:52:03.583Z,21.00
2018-11-01T04:54:32.061Z,20.80
2018-11-01T04:57:00.718Z,19.40
2018-11-01T04:59:29.169Z,19.53
2018-11-01T05:01:57.799Z,19.63
2018-11-01T05:04:26.257Z,18.63
2018-11-01T05:06:54.775Z,18.60
2018-11-01T05:09:23.279Z,17.50
2018-11-01T05:11:51.733Z,17.93
2018-11-01T05:14:20.184Z,16.70
2018-11-01T05:16:48.670Z,16.37
2018-11-01T05:19:17.114Z,15.70
2018-11-01T05:21:45.680Z,15.77
2018-11-01T05:24:14.227Z,15.83
2018-11-01T05:26:42.714Z,15.13
2018-11-01T05:29:11.221Z,15.17
2018-11-01T05:31:39.785Z,14.03
2018-11-01T05:34:08.267Z,13.73
2018-11-01T05:36:36.787Z,13.00
2018-11-01T05:39:08.220Z,12.73
2018-11-01T05:41:36.758Z,12.43
2018-11-01T05:44:05.519Z,11.40
2018-11-01T05:46:33.998Z,10.37
2018-11-01T05:49:02.507Z,10.40
2018-11-01T05:51:31.014Z,9.30
2018-11-01T05:53:59.519Z,8.70
2018-11-01T05:56:28.031Z,8.70
2018-11-01T05:58:56.462Z,8.13
2018-11-01T06:01:30.273Z,23.83
2018-11-01T06:03:58.837Z,20.60
2018-11-01T06:06:27.286Z,15.37
2018-11-01T06:08:56.395Z,14.40
2018-11-01T06:11:24.857Z,12.87
2018-11-01T06:13:53.364Z,19.97
2018-11-01T06:16:21.838Z,27.23
2018-11-01T06:18:50.334Z,14.73
2018-11-01T06:21:18.835Z,11.80
2018-11-01T06:23:47.326Z,13.10
2018-11-01T06:26:16.645Z,10.97
2018-11-01T06:28:45.177Z,14.43
2018-11-01T06:31:13.659Z,11.90
2018-11-01T06:33:42.170Z,11.67
2018-11-01T06:36:12.890Z,11.57
2018-11-01T06:38:41.396Z,11.07
2018-11-01T06:41:09.940Z,10.93
2018-11-01T06:43:38.588Z,11.43
2018-11-01T06:46:07.164Z,11.00
2018-11-01T06:48:35.640Z,10.23
2018-11-01T06:51:04.257Z,10.00
2018-11-01T06:53:32.825Z,9.53
2018-11-01T06:56:01.291Z,8.47
2018-11-01T06:58:30.005Z,9.47
2018-11-01T07:00:58.412Z,8.17
2018-11-01T07:03:26.926Z,8.13
2018-11-01T07:05:55.409Z,9.30
2018-11-01T07:08:23.946Z,9.00
2018-11-01T07:10:53.378Z,9.00
2018-11-01T07:13:21.879Z,9.50
2018-11-01T07:15:50.358Z,9.60
2018-11-01T07:18:18.832Z,10.33
2018-11-01T07:20:47.301Z,10.07
2018-11-01T07:23:15.771Z,9.93
2018-11-01T07:25:44.327Z,11.03
2018-11-01T07:28:12.790Z,10.60
2018-11-01T07:30:41.283Z,9.57
2018-11-01T07:33:09.900Z,9.93
2018-11-01T07:35:38.430Z,9.57
2018-11-01T07:38:06.908Z,8.50
2018-11-01T07:40:35.458Z,8.63
2018-11-01T07:43:03.909Z,8.40
2018-11-01T07:45:32.376Z,8.83
2018-11-01T07:48:00.869Z,8.23
2018-11-01T07:50:29.318Z,8.70
2018-11-01T07:52:57.855Z,8.03
2018-11-01T07:55:26.288Z,7.57
2018-11-01T07:57:54.740Z,7.80
2018-11-01T08:00:23.210Z,8.33
2018-11-01T08:02:51.681Z,7.43
2018-11-01T08:05:20.221Z,8.53
2018-11-01T08:07:48.765Z,7.00
2018-11-01T08:10:18.302Z,6.30
2018-11-01T08:12:47.508Z,6.77
2018-11-01T08:15:18.330Z,6.77
2018-11-01T08:17:46.882Z,7.80
2018-11-01T08:20:16.028Z,6.63
2018-11-01T08:22:44.395Z,7.13
2018-11-01T08:25:13.465Z,7.00
2018-11-01T08:27:42.712Z,9.53
2018-11-01T08:30:13.192Z,7.27
2018-11-01T08:32:41.661Z,7.83
2018-11-01T08:35:11.078Z,7.63
2018-11-01T08:37:40.248Z,8.43
2018-11-01T08:40:09.414Z,8.00
2018-11-01T08:42:38.085Z,7.73
2018-11-01T08:45:08.467Z,8.00
2018-11-01T08:47:37.158Z,7.70
2018-11-01T08:50:06.744Z,8.23
2018-11-01T08:52:35.198Z,8.03
2018-11-01T08:55:03.686Z,7.80
2018-11-01T08:57:32.249Z,8.40
2018-11-01T09:00:00.754Z,8.87
2018-11-01T09:02:29.573Z,8.30
2018-11-01T09:04:58.189Z,7.73
2018-11-01T09:07:26.814Z,8.90
2018-11-01T09:09:55.295Z,9.00
2018-11-01T09:12:23.791Z,9.03
2018-11-01T09:14:52.306Z,9.30
2018-11-01T09:17:20.778Z,8.80
2018-11-01T09:19:49.246Z,10.73
2018-11-01T09:22:17.750Z,11.63
2018-11-01T09:24:46.240Z,12.83
2018-11-01T09:27:15.108Z,11.57
2018-11-01T09:29:43.544Z,10.70
2018-11-01T09:32:12.041Z,8.00
2018-11-01T09:34:40.490Z,7.43
2018-11-01T09:37:08.964Z,7.50
2018-11-01T09:39:37.462Z,7.10
2018-11-01T09:42:05.944Z,7.23
2018-11-01T09:44:34.496Z,6.80
2018-11-01T09:47:03.414Z,6.60
2018-11-01T09:49:31.540Z,6.20
2018-11-01T09:52:00.036Z,6.60
2018-11-01T09:54:28.533Z,7.27
2018-11-01T09:56:57.133Z,7.83
2018-11-01T09:59:25.586Z,8.43
2018-11-01T10:01:54.087Z,8.70
2018-11-01T10:04:22.534Z,8.43
2018-11-01T10:06:51.177Z,7.83
2018-11-01T10:09:19.608Z,7.87
2018-11-01T10:11:48.071Z,8.77
2018-11-01T10:14:16.558Z,8.80
2018-11-01T10:16:45.298Z,8.97
2018-11-01T10:19:13.496Z,9.03
2018-11-01T10:21:42.053Z,8.53
2018-11-01T10:24:10.582Z,8.70
2018-11-01T10:26:39.272Z,8.87
2018-11-01T10:29:07.751Z,8.53
2018-11-01T10:31:36.296Z,9.47
2018-11-01T10:34:05.037Z,8.73
2018-11-01T10:36:34.118Z,9.43
2018-11-01T10:39:02.602Z,8.40
2018-11-01T10:41:31.104Z,9.93
2018-11-01T10:43:59.638Z,9.00
2018-11-01T10:46:28.088Z,9.03
2018-11-01T10:48:57.234Z,8.87
2018-11-01T10:51:25.727Z,8.83
2018-11-01T10:53:54.258Z,8.80
2018-11-01T10:56:23.047Z,9.07
2018-11-01T10:58:51.587Z,8.47
2018-11-01T11:01:25.279Z,10.03
2018-11-01T11:03:53.836Z,9.60
2018-11-01T11:06:22.567Z,9.47
2018-11-01T11:08:51.110Z,8.50
2018-11-01T11:11:19.786Z,9.40
2018-11-01T11:13:48.304Z,7.90
2018-11-01T11:16:17.372Z,7.83
2018-11-01T11:18:45.900Z,8.73
2018-11-01T11:21:14.717Z,8.07
2018-11-01T11:23:42.881Z,6.97
2018-11-01T11:26:11.446Z,7.30
2018-11-01T11:28:39.948Z,6.13
2018-11-01T11:31:08.421Z,5.63
2018-11-01T11:33:36.871Z,6.30
2018-11-01T11:36:05.588Z,5.27
2018-11-01T11:38:34.079Z,5.13
2018-11-01T11:41:02.557Z,4.53
2018-11-01T11:43:30.994Z,4.63
2018-11-01T11:45:59.496Z,4.20
2018-11-01T11:48:27.986Z,4.60
2018-11-01T11:50:56.531Z,4.23
2018-11-01T11:53:25.518Z,4.00
2018-11-01T11:55:53.979Z,4.03
2018-11-01T11:58:22.424Z,4.17
2018-11-01T12:00:50.958Z,3.63
2018-11-01T12:03:19.462Z,3.87
2018-11-01T12:05:48.069Z,3.80
2018-11-01T12:08:16.508Z,3.37
2018-11-01T12:10:44.955Z,3.23
2018-11-01T12:13:13.452Z,3.33
2018-11-01T12:15:41.918Z,3.50
2018-11-01T12:18:10.374Z,3.70
2018-11-01T12:20:39.967Z,3.33
2018-11-01T12:23:08.472Z,3.30
2018-11-01T12:25:37.004Z,3.30
2018-11-01T12:28:05.695Z,3.73
2018-11-01T12:34:05.426Z,4.80
2018-11-01T12:36:33.896Z,4.60
2018-11-01T12:39:02.390Z,4.77
2018-11-01T12:41:30.950Z,4.97
2018-11-01T12:43:59.446Z,5.00
2018-11-01T12:46:28.058Z,4.90
2018-11-01T12:48:56.566Z,5.53
2018-11-01T12:51:25.035Z,5.20
2018-11-01T12:53:53.506Z,4.63
2018-11-01T12:56:22.053Z,4.77
2018-11-01T12:58:50.490Z,4.50
2018-11-01T13:01:18.991Z,5.10
2018-11-01T13:03:47.455Z,4.93
2018-11-01T13:06:15.918Z,5.40
2018-11-01T13:08:45.083Z,5.17
2018-11-01T13:11:30.154Z,4.90
2018-11-01T13:13:58.898Z,4.63
2018-11-01T13:16:27.794Z,4.73
2018-11-01T13:18:56.610Z,4.00
2018-11-01T13:21:25.321Z,4.00
2018-11-01T13:23:54.015Z,4.17
2018-11-01T13:26:22.723Z,4.37
2018-11-01T13:28:51.486Z,4.70
2018-11-01T13:31:20.145Z,4.50
2018-11-01T13:33:48.895Z,4.63
2018-11-01T13:36:18.566Z,4.17
2018-11-01T13:38:47.070Z,4.63
2018-11-01T13:41:15.863Z,4.80
2018-11-01T13:43:44.069Z,4.90
2018-11-01T13:46:12.570Z,5.00
2018-11-01T13:48:41.407Z,4.40
2018-11-01T13:51:09.860Z,4.90
2018-11-01T13:53:38.382Z,5.13
2018-11-01T13:56:06.906Z,5.10
2018-11-01T13:58:35.390Z,4.17
2018-11-01T14:01:03.921Z,4.87
2018-11-01T14:03:32.399Z,4.70
2018-11-01T14:06:00.909Z,5.37
2018-11-01T14:08:29.498Z,5.10
2018-11-01T14:10:57.954Z,4.80
2018-11-01T14:13:26.645Z,4.93
2018-11-01T14:15:55.368Z,4.90
2018-11-01T14:18:23.898Z,5.27
2018-11-01T14:20:52.386Z,5.10
2018-11-01T14:23:20.928Z,4.70
2018-11-01T14:25:49.416Z,5.20
2018-11-01T14:28:17.880Z,5.53
2018-11-01T14:30:46.331Z,6.33
2018-11-01T14:33:14.810Z,6.13
2018-11-01T14:35:43.385Z,6.33
2018-11-01T14:38:11.846Z,6.90
2018-11-01T14:40:40.314Z,6.80
2018-11-01T14:43:08.799Z,6.07
2018-11-01T14:45:37.272Z,6.70
2018-11-01T14:48:05.861Z,6.47
2018-11-01T14:50:34.779Z,6.87
2018-11-01T14:53:03.981Z,6.83
2018-11-01T14:55:33.489Z,7.13
2018-11-01T14:58:02.309Z,7.77
2018-11-01T15:00:29.300Z,6.97
2018-11-01T15:02:57.799Z,10.77
2018-11-01T15:05:26.277Z,12.17
2018-11-01T15:07:54.746Z,16.40
2018-11-01T15:10:23.456Z,16.10
2018-11-01T15:12:51.985Z,14.90
2018-11-01T15:15:20.559Z,12.97
2018-11-01T15:17:49.062Z,12.63
2018-11-01T15:20:17.528Z,10.97
2018-11-01T15:22:46.108Z,12.40
2018-11-01T15:25:14.622Z,15.40
2018-11-01T15:27:43.183Z,47.20
2018-11-01T15:30:14.556Z,16.93
2018-11-01T15:32:43.315Z,8.27
2018-11-01T15:35:11.849Z,7.50
2018-11-01T15:37:40.505Z,6.60
2018-11-01T15:40:11.176Z,7.43
2018-11-01T15:42:40.054Z,6.80
2018-11-01T15:45:09.344Z,5.97
2018-11-01T15:47:38.213Z,8.00
2018-11-01T15:50:07.587Z,5.87
2018-11-01T15:52:36.087Z,5.97
2018-11-01T15:55:05.376Z,5.40
2018-11-01T15:57:33.865Z,5.90
2018-11-01T16:00:02.432Z,6.60
2018-11-01T16:02:30.987Z,5.60
2018-11-01T16:04:59.435Z,6.60
2018-11-01T16:07:27.952Z,5.60
2018-11-01T16:09:56.545Z,8.00
2018-11-01T16:12:25.026Z,10.07
2018-11-01T16:14:53.511Z,9.27
2018-11-01T16:17:22.066Z,7.20
2018-11-01T16:19:50.681Z,7.90
2018-11-01T16:22:19.036Z,8.17
2018-11-01T16:24:47.627Z,7.83
2018-11-01T16:27:16.172Z,9.43
2018-11-01T16:29:44.695Z,7.07
2018-11-01T16:32:13.247Z,7.73
2018-11-01T16:34:41.721Z,7.33
2018-11-01T16:37:10.273Z,7.33
2018-11-01T16:39:38.720Z,7.20
2018-11-01T16:42:07.239Z,7.23
2018-11-01T16:44:35.674Z,7.50
2018-11-01T16:47:04.247Z,7.23
2018-11-01T16:49:32.730Z,7.40
2018-11-01T16:52:01.335Z,7.57
2018-11-01T16:54:29.829Z,8.77
2018-11-01T16:56:58.358Z,8.03
2018-11-01T16:59:26.852Z,7.87
2018-11-01T17:01:55.393Z,7.83
2018-11-01T17:04:23.939Z,8.10
2018-11-01T17:06:52.421Z,8.37
2018-11-01T17:09:20.972Z,10.20
2018-11-01T17:11:49.519Z,9.10
2018-11-01T17:14:18.402Z,8.87
2018-11-01T17:16:46.911Z,9.80
2018-11-01T17:19:15.501Z,10.00
2018-11-01T17:21:44.005Z,9.47
2018-11-01T17:24:12.534Z,8.93
2018-11-01T17:26:41.047Z,10.00
2018-11-01T17:29:09.552Z,9.97
2018-11-01T17:31:38.067Z,10.03
2018-11-01T17:34:06.695Z,11.03
2018-11-01T17:36:35.132Z,12.00
2018-11-01T17:39:04.115Z,12.53
2018-11-01T17:41:32.842Z,13.40
2018-11-01T17:44:01.392Z,13.33
2018-11-01T17:46:29.949Z,16.57
2018-11-01T17:48:58.574Z,17.20
2018-11-01T17:51:27.236Z,16.63
2018-11-01T17:53:55.630Z,17.67
2018-11-01T17:56:24.113Z,17.60
2018-11-01T17:58:52.609Z,13.67
2018-11-01T18:01:21.166Z,15.37
2018-11-01T18:03:49.631Z,15.23
2018-11-01T18:06:18.131Z,13.97
2018-11-01T18:08:46.683Z,15.10
2018-11-01T18:11:15.193Z,15.00
2018-11-01T18:13:43.743Z,14.97
2018-11-01T18:16:12.250Z,13.07
2018-11-01T18:18:40.843Z,12.93
2018-11-01T18:21:09.356Z,13.03
2018-11-01T18:23:37.887Z,13.13
2018-11-01T18:26:06.498Z,14.17
2018-11-01T18:28:35.202Z,13.93
2018-11-01T18:31:03.698Z,12.60
2018-11-01T18:33:32.294Z,11.97
2018-11-01T18:36:00.878Z,12.13
2018-11-01T18:38:29.479Z,12.40
2018-11-01T18:40:58.146Z,12.97
2018-11-01T18:43:26.793Z,14.00
2018-11-01T18:45:55.821Z,14.10
2018-11-01T18:48:24.385Z,45.40
2018-11-01T18:50:52.888Z,25.80
2018-11-01T18:53:21.470Z,16.33
2018-11-01T18:55:50.111Z,17.50
2018-11-01T18:58:18.743Z,17.37
2018-11-01T19:00:47.575Z,22.10
2018-11-01T19:03:20.539Z,23.33
2018-11-01T19:05:49.180Z,20.10
2018-11-01T19:08:17.829Z,28.50
2018-11-01T19:10:46.396Z,21.43
2018-11-01T19:13:15.235Z,18.13
2018-11-01T19:15:43.838Z,14.63
2018-11-01T19:18:12.423Z,14.60
2018-11-01T19:20:41.059Z,14.67
2018-11-01T19:23:09.641Z,14.70
2018-11-01T19:25:38.246Z,13.90
2018-11-01T19:28:06.962Z,14.33
2018-11-01T19:30:36.318Z,13.60
2018-11-01T19:33:05.221Z,12.60
2018-11-01T19:35:33.896Z,13.07
2018-11-01T19:38:02.587Z,11.53
2018-11-01T19:40:31.327Z,11.27
2018-11-01T19:42:59.947Z,12.13
2018-11-01T19:45:28.562Z,12.23
2018-11-01T19:47:59.443Z,12.03
2018-11-01T19:50:28.270Z,12.77
2018-11-01T19:52:57.012Z,10.73
2018-11-01T19:55:25.828Z,10.90
2018-11-01T19:57:54.471Z,10.80
2018-11-01T20:00:23.060Z,10.97
2018-11-01T20:02:51.825Z,10.73
2018-11-01T20:05:20.382Z,9.80
2018-11-01T20:07:48.951Z,10.17
2018-11-01T20:10:18.350Z,11.37
2018-11-01T20:12:46.858Z,10.90
2018-11-01T20:15:16.071Z,10.90
2018-11-01T20:17:44.666Z,11.87
2018-11-01T20:20:13.771Z,11.30
2018-11-01T20:22:43.340Z,11.13
2018-11-01T20:25:11.945Z,10.70
2018-11-01T20:27:40.788Z,11.20
2018-11-01T20:30:11.430Z,10.47
2018-11-01T20:32:40.268Z,9.80
2018-11-01T20:35:10.169Z,10.33
2018-11-01T20:37:38.707Z,9.87
2018-11-01T20:40:07.457Z,9.63
2018-11-01T20:42:36.699Z,10.37
2018-11-01T20:45:06.547Z,9.87
2018-11-01T20:47:35.212Z,10.73
2018-11-01T20:50:04.089Z,10.33
2018-11-01T20:52:32.622Z,10.20
2018-11-01T20:55:01.186Z,10.27
2018-11-01T20:57:29.867Z,10.03
2018-11-01T20:59:58.266Z,11.03
2018-11-01T21:02:26.782Z,11.13
2018-11-01T21:04:55.353Z,10.97
2018-11-01T21:07:23.842Z,10.70
2018-11-01T21:09:52.338Z,11.10
2018-11-01T21:12:20.850Z,10.43
2018-11-01T21:14:49.370Z,10.83
2018-11-01T21:17:17.915Z,10.13
2018-11-01T21:19:46.465Z,9.80
2018-11-01T21:22:15.763Z,9.07
2018-11-01T21:24:44.694Z,9.20
2018-11-01T21:27:13.242Z,9.73
2018-11-01T21:29:41.736Z,8.60
2018-11-01T21:32:10.341Z,9.57
2018-11-01T21:34:38.957Z,9.40
2018-11-01T21:37:07.869Z,9.23
2018-11-01T21:39:36.365Z,9.13
2018-11-01T21:42:05.113Z,10.13
2018-11-01T21:44:33.659Z,10.57
2018-11-01T21:47:02.262Z,10.90
2018-11-01T21:49:30.743Z,9.53
2018-11-01T21:51:59.410Z,8.80
2018-11-01T21:54:27.943Z,8.60
2018-11-01T21:56:56.398Z,8.80
2018-11-01T21:59:24.878Z,9.27
2018-11-01T22:01:53.430Z,10.00
2018-11-01T22:04:22.126Z,9.97
2018-11-01T22:06:50.857Z,9.40
2018-11-01T22:09:19.387Z,9.53
2018-11-01T22:11:48.059Z,9.90
2018-11-01T22:14:16.603Z,11.47
2018-11-01T22:16:45.110Z,12.80
2018-11-01T22:19:13.673Z,12.50
2018-11-01T22:21:42.267Z,12.77
2018-11-01T22:24:10.858Z,10.33
2018-11-01T22:26:39.416Z,9.83
2018-11-01T22:29:08.051Z,9.60
2018-11-01T22:31:37.204Z,9.60
2018-11-01T22:34:06.581Z,9.73
2018-11-01T22:36:35.523Z,8.67
2018-11-01T22:39:05.742Z,8.90
2018-11-01T22:41:34.279Z,9.93
2018-11-01T22:44:02.778Z,9.37
2018-11-01T22:46:31.439Z,10.40
2018-11-01T22:48:59.983Z,10.87
2018-11-01T22:51:28.838Z,10.00
2018-11-01T22:53:57.549Z,9.90
2018-11-01T22:56:26.087Z,9.67
2018-11-01T22:58:54.726Z,9.03
2018-11-01T23:01:23.283Z,8.20
2018-11-01T23:03:51.842Z,9.23
2018-11-01T23:06:20.491Z,9.37
2018-11-01T23:08:49.056Z,9.00
2018-11-01T23:11:17.607Z,8.67
2018-11-01T23:13:46.148Z,9.23
2018-11-01T23:16:14.677Z,9.03
2018-11-01T23:18:43.370Z,8.77
2018-11-01T23:21:11.934Z,8.07
2018-11-01T23:23:40.496Z,8.57
2018-11-01T23:26:09.063Z,8.80
2018-11-01T23:28:37.669Z,9.60
2018-11-01T23:31:06.245Z,9.43
2018-11-01T23:33:34.800Z,8.80
2018-11-01T23:36:04.026Z,8.07
2018-11-01T23:38:37.844Z,8.73
2018-11-01T23:41:11.971Z,8.80
2018-11-01T23:43:45.918Z,8.53
2018-11-01T23:46:19.810Z,7.60
2018-11-01T23:48:59.581Z,7.77
2018-11-01T23:51:28.218Z,7.77
2018-11-01T23:53:56.786Z,7.83
2018-11-01T23:56:25.328Z,7.47
2018-11-01T23:58:53.850Z,7.77
